createdAt,value
2022-08-17T00:00:43.055Z,23.48
2022-08-17T00:05:52.438Z,21.63
2022-08-17T00:10:54.295Z,19.73
2022-08-17T00:16:00.176Z,21.67
2022-08-17T00:21:01.671Z,21.27
2022-08-17T00:26:05.086Z,20.98
2022-08-17T00:31:07.711Z,19.55
2022-08-17T00:36:09.352Z,23.13
2022-08-17T00:41:22.400Z,23.27
2022-08-17T00:46:28.991Z,24.05
2022-08-17T00:51:33.541Z,21.23
2022-08-17T00:56:37.779Z,22.60
2022-08-17T01:01:39.965Z,21.92
2022-08-17T01:06:42.839Z,20.45
2022-08-17T01:11:45.486Z,22.90
2022-08-17T01:16:48.134Z,23.02
2022-08-17T01:21:58.353Z,20.90
2022-08-17T01:27:02.047Z,20.48
2022-08-17T01:32:05.567Z,23.13
2022-08-17T01:37:07.324Z,20.45
2022-08-17T01:42:32.002Z,24.48
2022-08-17T01:47:35.999Z,23.98
2022-08-17T01:52:37.890Z,22.85
2022-08-17T01:57:39.339Z,22.02
2022-08-17T02:02:41.162Z,23.20
2022-08-17T02:07:59.383Z,22.17
2022-08-17T02:13:03.078Z,23.40
2022-08-17T02:18:05.631Z,24.98
2022-08-17T02:23:08.947Z,21.98
2022-08-17T02:28:11.013Z,23.98
2022-08-17T02:33:12.538Z,23.88
2022-08-17T02:38:13.994Z,22.52
2022-08-17T02:43:15.670Z,22.85
2022-08-17T02:48:17.193Z,23.13
2022-08-17T02:53:35.570Z,25.45
2022-08-17T02:58:37.552Z,27.75
2022-08-17T03:03:39.281Z,22.75
2022-08-17T03:08:40.797Z,24.10
2022-08-17T03:13:42.273Z,23.83
2022-08-17T03:18:43.717Z,23.92
2022-08-17T03:23:45.148Z,22.05
2022-08-17T03:28:46.720Z,24.95
2022-08-17T03:33:48.202Z,22.70
2022-08-17T03:38:49.617Z,28.88
2022-08-17T03:43:52.561Z,25.70
2022-08-17T03:49:12.805Z,28.98
2022-08-17T03:54:32.750Z,18.52
2022-08-17T03:59:34.928Z,16.20
2022-08-17T04:04:37.254Z,19.27
2022-08-17T04:09:38.678Z,16.90
2022-08-17T04:14:53.209Z,14.95
2022-08-17T04:19:56.497Z,13.93
2022-08-17T04:24:57.999Z,10.45
2022-08-17T04:30:00.602Z,10.70
2022-08-17T04:35:02.026Z,10.57
2022-08-17T04:40:22.913Z,9.82
2022-08-17T04:45:27.874Z,9.98
2022-08-17T04:50:34.998Z,10.40
2022-08-17T04:55:36.640Z,11.95
2022-08-17T05:00:38.486Z,10.82
2022-08-17T05:05:43.182Z,11.18
2022-08-17T05:10:45.654Z,12.88
2022-08-17T05:15:48.437Z,10.07
2022-08-17T05:20:50.016Z,11.13
2022-08-17T05:25:55.474Z,11.32
2022-08-17T05:30:58.116Z,14.73
2022-08-17T05:36:00.491Z,16.45
2022-08-17T05:41:02.873Z,17.55
2022-08-17T05:46:10.357Z,16.48
2022-08-17T05:51:27.435Z,14.52
2022-08-17T05:56:47.775Z,13.95
2022-08-17T06:02:03.030Z,12.40
2022-08-17T06:07:16.582Z,11.43
2022-08-17T06:12:32.188Z,12.88
2022-08-17T06:17:34.663Z,11.40
2022-08-17T06:22:44.699Z,12.95
2022-08-17T06:27:53.584Z,11.95
2022-08-17T06:32:59.511Z,11.57
2022-08-17T06:38:33.944Z,11.50
2022-08-17T06:43:47.946Z,9.88
2022-08-17T06:49:12.851Z,10.25
2022-08-17T06:54:20.430Z,10.35
2022-08-17T06:59:56.159Z,11.68
2022-08-17T07:05:01.756Z,12.23
2022-08-17T07:10:03.656Z,11.18
2022-08-17T07:15:05.814Z,10.77
2022-08-17T07:20:09.335Z,10.15
2022-08-17T07:25:13.044Z,14.45
2022-08-17T07:30:25.119Z,19.85
2022-08-17T07:35:37.635Z,21.95
2022-08-17T07:40:39.508Z,24.42
2022-08-17T07:46:10.388Z,25.52
2022-08-17T07:51:27.266Z,22.35
2022-08-17T07:56:34.394Z,23.30
2022-08-17T08:01:39.595Z,23.67
2022-08-17T08:06:54.841Z,21.17
2022-08-17T08:11:56.308Z,21.30
2022-08-17T08:16:59.871Z,21.27
2022-08-17T08:22:07.718Z,21.45
2022-08-17T08:27:27.707Z,18.20
2022-08-17T08:32:35.218Z,15.27
2022-08-17T08:37:57.196Z,13.82
2022-08-17T08:43:36.229Z,12.85
2022-08-17T08:48:52.964Z,16.48
2022-08-17T08:54:05.947Z,14.63
2022-08-17T08:59:14.320Z,16.30
2022-08-17T09:04:25.473Z,17.65
2022-08-17T09:09:59.308Z,17.77
2022-08-17T09:15:12.866Z,16.52
2022-08-17T09:20:28.388Z,20.80
2022-08-17T09:25:32.083Z,19.27
2022-08-17T09:31:06.040Z,24.75
2022-08-17T09:36:11.848Z,20.08
2022-08-17T09:41:16.262Z,18.45
2022-08-17T09:46:39.668Z,17.38
2022-08-17T09:51:45.493Z,16.58
2022-08-17T09:57:11.887Z,16.02
2022-08-17T10:02:22.667Z,16.65
2022-08-17T10:07:30.607Z,18.15
2022-08-17T10:12:46.404Z,16.15
2022-08-17T10:18:08.549Z,16.70
2022-08-17T10:23:47.840Z,16.60
2022-08-17T10:29:00.615Z,19.33
2022-08-17T10:34:22.361Z,17.30
2022-08-17T10:39:52.194Z,18.38
2022-08-17T10:45:00.573Z,19.80
2022-08-17T10:50:22.011Z,20.08
2022-08-17T10:55:25.789Z,19.80
2022-08-17T11:00:29.296Z,20.75
2022-08-17T11:05:45.862Z,20.50
2022-08-17T11:10:51.911Z,15.98
2022-08-17T11:15:54.413Z,21.15
2022-08-17T11:21:21.937Z,17.98
2022-08-17T11:26:26.017Z,20.77
2022-08-17T11:31:39.336Z,20.95
2022-08-17T11:37:19.609Z,18.58
2022-08-17T11:42:21.040Z,16.38
2022-08-17T11:48:23.923Z,14.93
2022-08-17T11:53:36.279Z,15.15
2022-08-17T11:58:39.097Z,13.90
2022-08-17T12:03:43.264Z,12.95
2022-08-17T12:09:34.588Z,13.18
2022-08-17T12:15:05.916Z,13.05
2022-08-17T12:20:17.714Z,12.40
2022-08-17T12:25:36.027Z,11.40
2022-08-17T12:30:37.869Z,10.65
2022-08-17T12:35:39.325Z,12.43
2022-08-17T12:40:40.796Z,10.82
2022-08-17T12:45:42.437Z,10.93
2022-08-17T12:50:45.195Z,11.05
2022-08-17T12:55:47.630Z,10.55
2022-08-17T13:00:50.723Z,12.77
2022-08-17T13:06:30.199Z,14.23
2022-08-17T13:11:31.613Z,15.00
2022-08-17T13:16:33.691Z,15.23
2022-08-17T13:21:35.973Z,15.88
2022-08-17T13:26:38.726Z,13.10
2022-08-17T13:31:44.086Z,13.73
2022-08-17T13:37:16.609Z,11.30
2022-08-17T13:42:53.164Z,12.68
2022-08-17T13:48:07.403Z,13.48
2022-08-17T13:53:16.233Z,15.85
2022-08-17T13:58:26.632Z,13.18
2022-08-17T14:03:28.012Z,14.25
2022-08-17T14:08:30.833Z,15.95
2022-08-17T14:13:32.345Z,15.73
2022-08-17T14:18:35.459Z,15.93
2022-08-17T14:23:55.224Z,12.82
2022-08-17T14:28:57.219Z,14.07
2022-08-17T14:33:59.540Z,15.38
2022-08-17T14:39:00.985Z,13.82
2022-08-17T14:44:02.549Z,14.95
2022-08-17T14:49:03.978Z,13.57
2022-08-17T14:54:05.507Z,14.70
2022-08-17T14:59:07.386Z,13.07
2022-08-17T15:04:18.615Z,11.82
2022-08-17T15:09:20.064Z,12.80
2022-08-17T15:14:23.621Z,12.07
2022-08-17T15:19:25.249Z,12.57
2022-08-17T15:24:26.701Z,12.93
2022-08-17T15:29:28.839Z,14.45
2022-08-17T15:34:30.370Z,13.15
2022-08-17T15:39:31.900Z,12.40
2022-08-17T15:44:34.863Z,16.35
2022-08-17T15:49:40.545Z,14.45
2022-08-17T15:54:42.112Z,13.35
2022-08-17T15:59:47.295Z,12.98
2022-08-17T16:04:53.640Z,13.82
2022-08-17T16:09:55.830Z,12.82
2022-08-17T16:14:57.499Z,11.43
2022-08-17T16:19:59.029Z,12.65
2022-08-17T16:25:02.487Z,12.90
2022-08-17T16:30:05.787Z,13.85
2022-08-17T16:35:12.037Z,12.45
2022-08-17T16:40:14.591Z,14.20
2022-08-17T16:45:18.485Z,11.48
2022-08-17T16:50:21.292Z,11.23
2022-08-17T16:56:06.621Z,11.50
2022-08-17T17:01:08.147Z,13.70
2022-08-17T17:06:28.379Z,10.90
2022-08-17T17:11:46.354Z,11.90
2022-08-17T17:23:13.190Z,11.82
2022-08-17T17:28:33.549Z,11.00
2022-08-17T17:33:38.629Z,12.15
2022-08-17T17:38:45.294Z,11.63
2022-08-17T17:43:49.424Z,11.95
2022-08-17T17:48:51.195Z,12.02
2022-08-17T17:54:00.085Z,10.73
2022-08-17T17:59:21.055Z,14.18
2022-08-17T18:04:26.339Z,12.85
2022-08-17T18:09:36.594Z,10.43
2022-08-17T18:14:58.274Z,12.02
2022-08-17T18:20:00.180Z,15.30
2022-08-17T18:25:01.747Z,12.23
2022-08-17T18:30:12.317Z,10.75
2022-08-17T18:35:14.371Z,11.90
2022-08-17T18:40:23.419Z,11.13
2022-08-17T18:46:08.793Z,11.57
2022-08-17T18:51:41.468Z,12.55
2022-08-17T18:57:00.173Z,11.70
2022-08-17T19:02:29.708Z,11.57
2022-08-17T19:07:39.219Z,10.63
2022-08-17T19:13:12.560Z,13.38
2022-08-17T19:18:15.844Z,12.63
2022-08-17T19:23:23.566Z,9.60
2022-08-17T19:28:27.845Z,10.93
2022-08-17T19:33:31.429Z,10.73
2022-08-17T19:38:45.629Z,9.93
2022-08-17T19:43:56.337Z,9.93
2022-08-17T19:49:21.338Z,10.63
2022-08-17T19:54:41.332Z,11.88
2022-08-17T19:59:49.495Z,10.48
2022-08-17T20:04:53.170Z,9.02
2022-08-17T20:09:59.675Z,12.18
2022-08-17T20:15:07.051Z,9.10
2022-08-17T20:20:20.453Z,8.82
2022-08-17T20:25:34.013Z,9.05
2022-08-17T20:30:37.386Z,11.07
2022-08-17T20:35:39.477Z,11.15
2022-08-17T20:41:01.180Z,10.07
2022-08-17T20:46:17.971Z,11.07
2022-08-17T20:51:25.945Z,10.35
2022-08-17T20:56:43.105Z,10.10
2022-08-17T21:02:02.615Z,10.88
2022-08-17T21:12:05.929Z,12.55
2022-08-17T21:17:29.740Z,10.80
2022-08-17T21:22:33.999Z,11.77
2022-08-17T21:27:35.418Z,10.00
2022-08-17T21:32:38.152Z,12.23
2022-08-17T21:37:46.382Z,10.48
2022-08-17T21:42:49.167Z,9.82
2022-08-17T21:47:51.760Z,11.35
2022-08-17T21:52:54.110Z,11.15
2022-08-17T21:58:14.376Z,10.07
2022-08-17T22:03:24.285Z,11.32
2022-08-17T22:08:25.730Z,13.23
2022-08-17T22:13:29.860Z,15.00
2022-08-17T22:18:31.977Z,17.05
2022-08-17T22:24:02.246Z,11.15
2022-08-17T22:29:03.758Z,11.00
2022-08-17T22:34:13.751Z,13.80
2022-08-17T22:39:15.176Z,10.98
2022-08-17T22:44:26.012Z,10.77
2022-08-17T22:49:53.896Z,10.65
2022-08-17T22:55:23.911Z,10.50
2022-08-17T23:00:31.448Z,9.93
2022-08-17T23:05:34.070Z,9.23
2022-08-17T23:10:37.419Z,9.90
2022-08-17T23:15:39.594Z,11.10
2022-08-17T23:20:41.289Z,10.93
2022-08-17T23:25:46.185Z,8.27
2022-08-17T23:30:48.566Z,8.75
2022-08-17T23:35:50.012Z,11.48
2022-08-17T23:40:51.431Z,9.43
2022-08-17T23:45:57.538Z,10.40
2022-08-17T23:51:00.600Z,12.50
2022-08-17T23:56:10.368Z,10.48
